Terminal Aerodrome Forecast
Issued by NWS

Home | Current Version | Previous Version | Graphics & Text | Print | Product List | Glossary Off
Versions: 1 2 3 4 5 6 7 8 9 10 11 12 13 14 15 16 17 18 19 20 21 22 23 24 25 26 27 28 29 30 31 32 33 34 35 36 37 38 39 40 41 42 43 44

000
FTUS43 KDDC 180544
TAFGCK
TAF
KGCK 180544Z 1806/1906 10006KT 4SM BR OVC006
     FM181400 36008KT P6SM OVC015
     FM181800 VRB06KT P6SM SCT020
     FM190500 20007KT P6SM BKN008=

USA.gov is the U.S. government's official web portal to all federal, state and local government web resources and services.